sensor_id;sensor_type;location;lat;lon;timestamp;pressure;altitude;pressure_sealevel;temperature;humidity
50774;BME280;36745;48.544;8.918;2022-12-18T00:00:16;98424.53;;;-11.78;91.67
50774;BME280;36745;48.544;8.918;2022-12-18T00:03:36;98430.63;;;-11.78;91.95
50774;BME280;36745;48.544;8.918;2022-12-18T00:06:56;98435.41;;;-11.75;92.30
50774;BME280;36745;48.544;8.918;2022-12-18T00:10:19;98429.59;;;-11.82;91.80
50774;BME280;36745;48.544;8.918;2022-12-18T00:13:38;98428.50;;;-11.86;91.31
50774;BME280;36745;48.544;8.918;2022-12-18T00:16:59;98429.06;;;-11.89;91.30
50774;BME280;36745;48.544;8.918;2022-12-18T00:20:20;98430.66;;;-11.88;91.53
50774;BME280;36745;48.544;8.918;2022-12-18T00:23:46;98428.50;;;-11.81;92.29
50774;BME280;36745;48.544;8.918;2022-12-18T00:27:06;98444.47;;;-11.96;91.16
50774;BME280;36745;48.544;8.918;2022-12-18T00:30:26;98442.09;;;-11.87;91.50
50774;BME280;36745;48.544;8.918;2022-12-18T00:33:46;98440.50;;;-11.88;91.39
50774;BME280;36745;48.544;8.918;2022-12-18T00:37:06;98432.69;;;-11.70;90.79
50774;BME280;36745;48.544;8.918;2022-12-18T00:40:26;98438.09;;;-12.00;90.12
50774;BME280;36745;48.544;8.918;2022-12-18T00:43:45;98442.38;;;-12.09;89.95
50774;BME280;36745;48.544;8.918;2022-12-18T00:47:05;98438.13;;;-12.10;90.10
50774;BME280;36745;48.544;8.918;2022-12-18T00:50:25;98430.66;;;-12.08;89.92
50774;BME280;36745;48.544;8.918;2022-12-18T00:53:45;98429.59;;;-12.27;90.14
50774;BME280;36745;48.544;8.918;2022-12-18T00:57:05;98443.94;;;-12.34;90.45
50774;BME280;36745;48.544;8.918;2022-12-18T01:00:25;98451.38;;;-12.46;90.88
50774;BME280;36745;48.544;8.918;2022-12-18T01:03:44;98446.59;;;-12.54;90.75
50774;BME280;36745;48.544;8.918;2022-12-18T01:07:05;98450.84;;;-12.53;90.80
50774;BME280;36745;48.544;8.918;2022-12-18T01:10:25;98446.28;;;-12.62;91.00
50774;BME280;36745;48.544;8.918;2022-12-18T01:13:46;98453.50;;;-12.53;91.37
50774;BME280;36745;48.544;8.918;2022-12-18T01:17:06;98452.97;;;-12.50;90.72
50774;BME280;36745;48.544;8.918;2022-12-18T01:20:25;98447.09;;;-12.62;90.22
50774;BME280;36745;48.544;8.918;2022-12-18T01:23:45;98456.16;;;-12.63;90.78
50774;BME280;36745;48.544;8.918;2022-12-18T01:27:06;98450.47;;;-12.97;89.75
50774;BME280;36745;48.544;8.918;2022-12-18T01:30:25;98459.75;;;-12.94;89.99
50774;BME280;36745;48.544;8.918;2022-12-18T01:33:46;98459.22;;;-13.11;88.87
50774;BME280;36745;48.544;8.918;2022-12-18T01:37:08;98461.34;;;-13.13;89.15
50774;BME280;36745;48.544;8.918;2022-12-18T01:40:28;98453.81;;;-13.32;88.70
50774;BME280;36745;48.544;8.918;2022-12-18T01:43:52;98465.53;;;-13.28;88.89
50774;BME280;36745;48.544;8.918;2022-12-18T01:47:41;98472.47;;;-13.06;89.89
50774;BME280;36745;48.544;8.918;2022-12-18T01:51:02;98466.16;;;-12.90;89.65
50774;BME280;36745;48.544;8.918;2022-12-18T01:54:23;98464.56;;;-12.96;89.43
50774;BME280;36745;48.544;8.918;2022-12-18T01:57:43;98455.03;;;-12.77;89.98
50774;BME280;36745;48.544;8.918;2022-12-18T02:01:03;98454.56;;;-12.64;89.49
50774;BME280;36745;48.544;8.918;2022-12-18T02:04:25;98452.94;;;-12.75;89.71
50774;BME280;36745;48.544;8.918;2022-12-18T02:11:53;98455.63;;;-12.55;89.37
50774;BME280;36745;48.544;8.918;2022-12-18T02:15:22;98459.34;;;-12.51;89.96
50774;BME280;36745;48.544;8.918;2022-12-18T02:18:47;98455.59;;;-12.60;90.20
50774;BME280;36745;48.544;8.918;2022-12-18T02:22:44;98455.88;;;-12.46;89.78
50774;BME280;36745;48.544;8.918;2022-12-18T02:26:34;98451.66;;;-12.42;89.75
50774;BME280;36745;48.544;8.918;2022-12-18T02:29:57;98456.72;;;-12.20;90.00
50774;BME280;36745;48.544;8.918;2022-12-18T02:33:20;98472.38;;;-12.19;89.47
50774;BME280;36745;48.544;8.918;2022-12-18T02:36:41;98460.97;;;-12.14;89.66
50774;BME280;36745;48.544;8.918;2022-12-18T02:40:04;98463.34;;;-12.08;90.11
50774;BME280;36745;48.544;8.918;2022-12-18T02:43:24;98467.34;;;-11.95;89.80
50774;BME280;36745;48.544;8.918;2022-12-18T02:46:46;98472.91;;;-11.92;89.75
50774;BME280;36745;48.544;8.918;2022-12-18T02:53:53;98470.81;;;-12.00;90.06
50774;BME280;36745;48.544;8.918;2022-12-18T03:01:28;98464.16;;;-11.77;90.77
50774;BME280;36745;48.544;8.918;2022-12-18T03:05:00;98455.56;;;-11.59;90.42
50774;BME280;36745;48.544;8.918;2022-12-18T03:08:24;98454.50;;;-11.63;90.25
50774;BME280;36745;48.544;8.918;2022-12-18T03:11:55;98455.53;;;-11.54;90.32
50774;BME280;36745;48.544;8.918;2022-12-18T03:15:42;98459.28;;;-11.50;89.80
50774;BME280;36745;48.544;8.918;2022-12-18T03:19:10;98467.25;;;-11.50;90.11
50774;BME280;36745;48.544;8.918;2022-12-18T03:22:32;98466.16;;;-11.49;90.21
50774;BME280;36745;48.544;8.918;2022-12-18T03:26:00;98468.56;;;-11.47;90.77
50774;BME280;36745;48.544;8.918;2022-12-18T03:29:24;98464.25;;;-11.33;90.92
50774;BME280;36745;48.544;8.918;2022-12-18T03:33:07;98464.78;;;-11.26;89.88
50774;BME280;36745;48.544;8.918;2022-12-18T03:36:31;98463.19;;;-11.32;89.66
50774;BME280;36745;48.544;8.918;2022-12-18T03:39:51;98456.81;;;-11.31;89.97
50774;BME280;36745;48.544;8.918;2022-12-18T03:43:32;98460.84;;;-11.33;90.01
50774;BME280;36745;48.544;8.918;2022-12-18T03:47:05;98454.94;;;-11.30;90.14
50774;BME280;36745;48.544;8.918;2022-12-18T03:54:13;98456.03;;;-11.31;91.54
50774;BME280;36745;48.544;8.918;2022-12-18T03:57:34;98451.44;;;-11.21;91.74
50774;BME280;36745;48.544;8.918;2022-12-18T04:00:56;98454.91;;;-11.20;91.26
50774;BME280;36745;48.544;8.918;2022-12-18T04:04:20;98452.28;;;-11.25;91.87
50774;BME280;36745;48.544;8.918;2022-12-18T04:07:41;98461.31;;;-11.21;92.01
50774;BME280;36745;48.544;8.918;2022-12-18T04:11:01;98462.34;;;-11.07;92.78
50774;BME280;36745;48.544;8.918;2022-12-18T04:14:21;98461.25;;;-11.06;92.82
50774;BME280;36745;48.544;8.918;2022-12-18T04:17:47;98454.63;;;-11.14;92.74
50774;BME280;36745;48.544;8.918;2022-12-18T04:21:07;98457.00;;;-11.07;92.49
50774;BME280;36745;48.544;8.918;2022-12-18T04:24:27;98465.03;;;-11.17;92.03
50774;BME280;36745;48.544;8.918;2022-12-18T04:27:47;98456.22;;;-11.08;92.96
50774;BME280;36745;48.544;8.918;2022-12-18T04:31:06;98464.94;;;-10.97;92.91
50774;BME280;36745;48.544;8.918;2022-12-18T04:34:26;98469.22;;;-10.96;92.88
50774;BME280;36745;48.544;8.918;2022-12-18T04:37:46;98464.94;;;-10.92;92.90
50774;BME280;36745;48.544;8.918;2022-12-18T04:41:06;98459.81;;;-10.83;93.53
50774;BME280;36745;48.544;8.918;2022-12-18T04:44:25;98455.47;;;-10.64;93.68
50774;BME280;36745;48.544;8.918;2022-12-18T04:47:45;98443.34;;;-10.46;93.17
50774;BME280;36745;48.544;8.918;2022-12-18T04:51:06;98438.78;;;-10.41;92.76
50774;BME280;36745;48.544;8.918;2022-12-18T04:54:25;98433.97;;;-10.39;93.43
50774;BME280;36745;48.544;8.918;2022-12-18T04:57:45;98445.41;;;-10.33;93.66
50774;BME280;36745;48.544;8.918;2022-12-18T05:01:06;98445.56;;;-10.20;93.79
50774;BME280;36745;48.544;8.918;2022-12-18T05:04:26;98443.91;;;-10.15;93.53
50774;BME280;36745;48.544;8.918;2022-12-18T05:07:46;98443.88;;;-10.10;93.82
50774;BME280;36745;48.544;8.918;2022-12-18T05:11:09;98447.38;;;-10.15;93.39
50774;BME280;36745;48.544;8.918;2022-12-18T05:14:28;98452.56;;;-10.29;93.09
50774;BME280;36745;48.544;8.918;2022-12-18T05:17:49;98466.16;;;-10.30;93.39
50774;BME280;36745;48.544;8.918;2022-12-18T05:21:08;98457.66;;;-10.32;93.01
50774;BME280;36745;48.544;8.918;2022-12-18T05:24:28;98445.78;;;-10.50;92.41
50774;BME280;36745;48.544;8.918;2022-12-18T05:27:48;98444.97;;;-10.50;93.15
50774;BME280;36745;48.544;8.918;2022-12-18T05:31:08;98449.78;;;-10.47;92.72
50774;BME280;36745;48.544;8.918;2022-12-18T05:34:28;98456.19;;;-10.53;93.02
50774;BME280;36745;48.544;8.918;2022-12-18T05:37:48;98459.41;;;-10.56;93.39
50774;BME280;36745;48.544;8.918;2022-12-18T05:41:08;98459.94;;;-10.54;93.49
50774;BME280;36745;48.544;8.918;2022-12-18T05:44:28;98459.63;;;-10.48;94.52
50774;BME280;36745;48.544;8.918;2022-12-18T05:47:47;98454.00;;;-10.46;94.49
50774;BME280;36745;48.544;8.918;2022-12-18T05:51:10;98445.97;;;-10.41;94.01
50774;BME280;36745;48.544;8.918;2022-12-18T05:54:30;98440.31;;;-10.30;94.06
50774;BME280;36745;48.544;8.918;2022-12-18T05:57:50;98442.19;;;-10.35;94.33
50774;BME280;36745;48.544;8.918;2022-12-18T06:01:15;98450.50;;;-10.37;94.54
50774;BME280;36745;48.544;8.918;2022-12-18T06:04:35;98446.50;;;-10.39;94.75
50774;BME280;36745;48.544;8.918;2022-12-18T06:07:55;98454.78;;;-10.41;94.22
50774;BME280;36745;48.544;8.918;2022-12-18T06:11:21;98461.47;;;-10.43;93.94
50774;BME280;36745;48.544;8.918;2022-12-18T06:14:40;98469.06;;;-10.66;93.62
50774;BME280;36745;48.544;8.918;2022-12-18T06:18:00;98479.25;;;-10.83;93.36
50774;BME280;36745;48.544;8.918;2022-12-18T06:21:21;98472.59;;;-10.80;93.49
50774;BME280;36745;48.544;8.918;2022-12-18T06:24:41;98482.44;;;-10.81;93.70
50774;BME280;36745;48.544;8.918;2022-12-18T06:28:00;98485.16;;;-10.91;93.55
50774;BME280;36745;48.544;8.918;2022-12-18T06:31:20;98486.25;;;-10.97;93.58
50774;BME280;36745;48.544;8.918;2022-12-18T06:34:40;98497.69;;;-10.91;93.51
50774;BME280;36745;48.544;8.918;2022-12-18T06:38:01;98499.03;;;-11.04;92.79
50774;BME280;36745;48.544;8.918;2022-12-18T06:41:21;98506.03;;;-11.23;92.28
50774;BME280;36745;48.544;8.918;2022-12-18T06:44:41;98513.53;;;-11.40;92.14
50774;BME280;36745;48.544;8.918;2022-12-18T06:48:01;98517.75;;;-11.29;92.47
50774;BME280;36745;48.544;8.918;2022-12-18T06:51:22;98514.56;;;-11.31;91.97
50774;BME280;36745;48.544;8.918;2022-12-18T06:54:42;98518.31;;;-11.48;91.61
50774;BME280;36745;48.544;8.918;2022-12-18T06:58:02;98526.28;;;-11.48;91.86
50774;BME280;36745;48.544;8.918;2022-12-18T07:01:22;98516.75;;;-11.64;91.19
50774;BME280;36745;48.544;8.918;2022-12-18T07:04:42;98525.78;;;-11.65;91.79
50774;BME280;36745;48.544;8.918;2022-12-18T07:08:01;98525.00;;;-11.55;91.56
50774;BME280;36745;48.544;8.918;2022-12-18T07:11:21;98533.28;;;-11.77;91.01
50774;BME280;36745;48.544;8.918;2022-12-18T07:14:41;98542.56;;;-11.79;90.89
50774;BME280;36745;48.544;8.918;2022-12-18T07:18:01;98546.56;;;-11.82;91.00
50774;BME280;36745;48.544;8.918;2022-12-18T07:21:22;98539.38;;;-11.86;90.65
50774;BME280;36745;48.544;8.918;2022-12-18T07:24:42;98538.31;;;-11.85;90.58
50774;BME280;36745;48.544;8.918;2022-12-18T07:28:02;98540.72;;;-11.79;90.83
50774;BME280;36745;48.544;8.918;2022-12-18T07:31:22;98546.56;;;-11.92;90.31
50774;BME280;36745;48.544;8.918;2022-12-18T07:34:42;98553.47;;;-11.91;90.54
50774;BME280;36745;48.544;8.918;2022-12-18T07:38:02;98532.16;;;-11.71;90.13
50774;BME280;36745;48.544;8.918;2022-12-18T07:41:22;98532.97;;;-11.65;89.89
50774;BME280;36745;48.544;8.918;2022-12-18T07:44:42;98537.50;;;-11.81;89.20
50774;BME280;36745;48.544;8.918;2022-12-18T07:48:02;98544.97;;;-11.93;89.12
50774;BME280;36745;48.544;8.918;2022-12-18T07:51:22;98541.22;;;-12.02;89.16
50774;BME280;36745;48.544;8.918;2022-12-18T07:54:42;98544.41;;;-12.15;88.59
50774;BME280;36745;48.544;8.918;2022-12-18T07:58:03;98547.88;;;-12.20;88.65
50774;BME280;36745;48.544;8.918;2022-12-18T08:01:23;98550.78;;;-12.26;88.66
50774;BME280;36745;48.544;8.918;2022-12-18T08:04:43;98551.03;;;-12.18;88.79
50774;BME280;36745;48.544;8.918;2022-12-18T08:08:03;98550.25;;;-12.23;88.68
50774;BME280;36745;48.544;8.918;2022-12-18T08:11:25;98554.97;;;-12.41;88.23
50774;BME280;36745;48.544;8.918;2022-12-18T08:14:45;98558.72;;;-12.42;88.65
50774;BME280;36745;48.544;8.918;2022-12-18T08:18:08;98561.97;;;-12.09;88.60
50774;BME280;36745;48.544;8.918;2022-12-18T08:21:29;98555.63;;;-11.93;88.44
50774;BME280;36745;48.544;8.918;2022-12-18T08:24:49;98557.97;;;-12.02;88.22
50774;BME280;36745;48.544;8.918;2022-12-18T08:28:09;98560.94;;;-11.83;88.21
50774;BME280;36745;48.544;8.918;2022-12-18T08:31:30;98562.00;;;-11.79;88.14
50774;BME280;36745;48.544;8.918;2022-12-18T08:34:50;98557.44;;;-11.68;88.20
50774;BME280;36745;48.544;8.918;2022-12-18T08:38:10;98560.34;;;-11.60;88.23
50774;BME280;36745;48.544;8.918;2022-12-18T08:41:30;98563.00;;;-11.60;88.30
50774;BME280;36745;48.544;8.918;2022-12-18T08:44:50;98564.09;;;-11.61;87.90
50774;BME280;36745;48.544;8.918;2022-12-18T08:48:10;98558.22;;;-11.58;87.68
50774;BME280;36745;48.544;8.918;2022-12-18T08:51:30;98549.47;;;-11.63;87.57
50774;BME280;36745;48.544;8.918;2022-12-18T08:54:49;98543.34;;;-11.64;87.76
50774;BME280;36745;48.544;8.918;2022-12-18T08:58:09;98541.72;;;-11.55;88.13
50774;BME280;36745;48.544;8.918;2022-12-18T09:01:29;98535.63;;;-11.45;87.78
50774;BME280;36745;48.544;8.918;2022-12-18T09:04:49;98533.22;;;-11.47;87.88
50774;BME280;36745;48.544;8.918;2022-12-18T09:08:09;98534.84;;;-11.61;87.71
50774;BME280;36745;48.544;8.918;2022-12-18T09:11:29;98535.34;;;-11.54;88.06
50774;BME280;36745;48.544;8.918;2022-12-18T09:14:50;98528.41;;;-11.24;88.91
50774;BME280;36745;48.544;8.918;2022-12-18T09:18:10;98522.50;;;-11.16;88.52
50774;BME280;36745;48.544;8.918;2022-12-18T09:21:32;98513.97;;;-11.03;88.41
50774;BME280;36745;48.544;8.918;2022-12-18T09:24:52;98521.88;;;-10.83;88.61
50774;BME280;36745;48.544;8.918;2022-12-18T09:28:18;98523.19;;;-10.75;88.44
50774;BME280;36745;48.544;8.918;2022-12-18T09:31:38;98523.28;;;-10.46;88.89
50774;BME280;36745;48.544;8.918;2022-12-18T09:34:58;98520.88;;;-10.43;88.07
50774;BME280;36745;48.544;8.918;2022-12-18T09:38:19;98515.84;;;-10.49;87.93
50774;BME280;36745;48.544;8.918;2022-12-18T09:45:02;98526.00;;;-10.56;87.38
50774;BME280;36745;48.544;8.918;2022-12-18T09:48:37;98520.06;;;-10.38;87.84
50774;BME280;36745;48.544;8.918;2022-12-18T09:52:09;98510.97;;;-10.32;88.20
50774;BME280;36745;48.544;8.918;2022-12-18T09:55:41;98520.66;;;-10.12;88.07
50774;BME280;36745;48.544;8.918;2022-12-18T09:59:03;98517.16;;;-10.08;87.35
50774;BME280;36745;48.544;8.918;2022-12-18T10:02:25;98523.47;;;-9.94;87.83
50774;BME280;36745;48.544;8.918;2022-12-18T10:09:13;98519.09;;;-9.80;88.15
50774;BME280;36745;48.544;8.918;2022-12-18T10:16:36;98520.44;;;-9.82;87.64
50774;BME280;36745;48.544;8.918;2022-12-18T10:20:08;98509.34;;;-9.65;87.30
50774;BME280;36745;48.544;8.918;2022-12-18T10:23:41;98519.50;;;-9.62;87.49
50774;BME280;36745;48.544;8.918;2022-12-18T10:27:30;98523.63;;;-9.46;87.85
50774;BME280;36745;48.544;8.918;2022-12-18T10:30:49;98515.50;;;-9.36;87.94
50774;BME280;36745;48.544;8.918;2022-12-18T10:34:11;98509.69;;;-9.14;87.82
50774;BME280;36745;48.544;8.918;2022-12-18T10:37:35;98509.34;;;-9.08;87.73
50774;BME280;36745;48.544;8.918;2022-12-18T10:44:23;98520.25;;;-8.80;87.66
50774;BME280;36745;48.544;8.918;2022-12-18T10:47:47;98520.06;;;-8.65;88.08
50774;BME280;36745;48.544;8.918;2022-12-18T10:51:08;98506.00;;;-8.52;87.96
50774;BME280;36745;48.544;8.918;2022-12-18T10:54:28;98506.22;;;-8.48;87.55
50774;BME280;36745;48.544;8.918;2022-12-18T10:57:49;98491.34;;;-8.36;87.29
50774;BME280;36745;48.544;8.918;2022-12-18T11:01:16;98480.19;;;-8.24;87.31
50774;BME280;36745;48.544;8.918;2022-12-18T11:04:50;98479.81;;;-8.18;87.68
50774;BME280;36745;48.544;8.918;2022-12-18T11:08:20;98475.19;;;-7.93;88.35
50774;BME280;36745;48.544;8.918;2022-12-18T11:11:48;98464.75;;;-7.63;88.74
50774;BME280;36745;48.544;8.918;2022-12-18T11:15:27;98471.63;;;-7.43;88.58
50774;BME280;36745;48.544;8.918;2022-12-18T11:18:48;98460.91;;;-7.43;87.79
50774;BME280;36745;48.544;8.918;2022-12-18T11:22:38;98463.03;;;-7.40;88.20
50774;BME280;36745;48.544;8.918;2022-12-18T11:26:01;98465.41;;;-7.25;88.36
50774;BME280;36745;48.544;8.918;2022-12-18T11:29:27;98452.53;;;-7.09;88.18
50774;BME280;36745;48.544;8.918;2022-12-18T11:32:52;98456.91;;;-6.86;88.15
50774;BME280;36745;48.544;8.918;2022-12-18T11:36:14;98455.19;;;-6.82;87.47
50774;BME280;36745;48.544;8.918;2022-12-18T11:39:37;98444.09;;;-6.53;88.81
50774;BME280;36745;48.544;8.918;2022-12-18T11:43:25;98432.31;;;-5.85;90.39
50774;BME280;36745;48.544;8.918;2022-12-18T11:46:51;98435.50;;;-5.21;90.57
50774;BME280;36745;48.544;8.918;2022-12-18T11:50:23;98430.94;;;-4.55;90.47
50774;BME280;36745;48.544;8.918;2022-12-18T11:53:43;98428.44;;;-4.09;89.73
50774;BME280;36745;48.544;8.918;2022-12-18T11:57:48;98435.06;;;-3.98;87.26
50774;BME280;36745;48.544;8.918;2022-12-18T12:12:32;98418.84;;;-3.46;84.31
50774;BME280;36745;48.544;8.918;2022-12-18T12:16:18;98409.34;;;-3.52;83.75
50774;BME280;36745;48.544;8.918;2022-12-18T12:20:13;98410.94;;;-3.51;83.09
50774;BME280;36745;48.544;8.918;2022-12-18T12:27:49;98398.81;;;-3.45;83.05
50774;BME280;36745;48.544;8.918;2022-12-18T12:38:49;98408.56;;;-3.15;82.79
50774;BME280;36745;48.544;8.918;2022-12-18T12:42:18;98401.72;;;-3.12;82.89
50774;BME280;36745;48.544;8.918;2022-12-18T12:49:23;98414.06;;;-3.49;81.50
50774;BME280;36745;48.544;8.918;2022-12-18T12:52:47;98414.06;;;-3.49;81.46
50774;BME280;36745;48.544;8.918;2022-12-18T12:56:13;98411.69;;;-3.51;81.90
50774;BME280;36745;48.544;8.918;2022-12-18T13:13:55;98419.34;;;-3.70;81.56
50774;BME280;36745;48.544;8.918;2022-12-18T13:17:24;98428.41;;;-3.92;81.31
50774;BME280;36745;48.544;8.918;2022-12-18T13:24:30;98418.31;;;-4.12;81.35
50774;BME280;36745;48.544;8.918;2022-12-18T13:38:47;98420.97;;;-4.20;83.22
50774;BME280;36745;48.544;8.918;2022-12-18T13:42:39;98414.50;;;-4.11;83.15
50774;BME280;36745;48.544;8.918;2022-12-18T13:46:19;98413.38;;;-4.10;83.48
50774;BME280;36745;48.544;8.918;2022-12-18T13:49:41;98399.44;;;-4.03;83.47
50774;BME280;36745;48.544;8.918;2022-12-18T13:53:03;98399.63;;;-4.00;82.97
50774;BME280;36745;48.544;8.918;2022-12-18T13:56:30;98403.72;;;-4.02;83.28
50774;BME280;36745;48.544;8.918;2022-12-18T13:59:50;98397.09;;;-4.05;82.75
50774;BME280;36745;48.544;8.918;2022-12-18T14:03:22;98409.13;;;-4.11;83.14
50774;BME280;36745;48.544;8.918;2022-12-18T14:06:46;98401.81;;;-4.19;83.30
50774;BME280;36745;48.544;8.918;2022-12-18T14:10:13;98400.75;;;-4.27;83.00
50774;BME280;36745;48.544;8.918;2022-12-18T14:13:40;98407.53;;;-4.29;83.34
50774;BME280;36745;48.544;8.918;2022-12-18T14:17:01;98402.78;;;-4.49;83.24
50774;BME280;36745;48.544;8.918;2022-12-18T14:20:21;98407.34;;;-4.58;83.94
50774;BME280;36745;48.544;8.918;2022-12-18T14:23:41;98402.28;;;-4.60;84.18
50774;BME280;36745;48.544;8.918;2022-12-18T14:27:25;98411.63;;;-4.66;84.28
50774;BME280;36745;48.544;8.918;2022-12-18T14:30:45;98415.41;;;-4.76;84.22
50774;BME280;36745;48.544;8.918;2022-12-18T14:34:07;98420.44;;;-4.83;84.71
50774;BME280;36745;48.544;8.918;2022-12-18T14:37:34;98413.78;;;-4.94;84.37
50774;BME280;36745;48.544;8.918;2022-12-18T14:41:11;98412.16;;;-5.03;84.03
50774;BME280;36745;48.544;8.918;2022-12-18T14:44:31;98410.69;;;-5.18;84.21
50774;BME280;36745;48.544;8.918;2022-12-18T14:47:51;98412.09;;;-5.29;83.58
50774;BME280;36745;48.544;8.918;2022-12-18T14:51:19;98413.59;;;-5.45;83.59
50774;BME280;36745;48.544;8.918;2022-12-18T14:54:39;98411.28;;;-5.61;84.17
50774;BME280;36745;48.544;8.918;2022-12-18T14:57:59;98415.69;;;-5.65;84.00
50774;BME280;36745;48.544;8.918;2022-12-18T15:01:31;98419.13;;;-5.73;84.51
50774;BME280;36745;48.544;8.918;2022-12-18T15:05:05;98421.88;;;-5.95;83.91
50774;BME280;36745;48.544;8.918;2022-12-18T15:08:35;98414.66;;;-6.08;85.06
50774;BME280;36745;48.544;8.918;2022-12-18T15:11:57;98418.53;;;-6.14;84.98
50774;BME280;36745;48.544;8.918;2022-12-18T15:18:53;98418.06;;;-6.39;84.81
50774;BME280;36745;48.544;8.918;2022-12-18T15:25:38;98421.25;;;-6.50;85.32
50774;BME280;36745;48.544;8.918;2022-12-18T15:28:58;98425.25;;;-6.48;85.25
50774;BME280;36745;48.544;8.918;2022-12-18T15:32:19;98420.69;;;-6.61;84.78
50774;BME280;36745;48.544;8.918;2022-12-18T15:35:39;98426.69;;;-6.78;85.23
50774;BME280;36745;48.544;8.918;2022-12-18T15:38:59;98423.72;;;-6.90;85.51
50774;BME280;36745;48.544;8.918;2022-12-18T15:42:18;98428.88;;;-7.07;85.94
50774;BME280;36745;48.544;8.918;2022-12-18T15:45:57;98430.09;;;-6.99;85.15
50774;BME280;36745;48.544;8.918;2022-12-18T15:49:17;98425.63;;;-7.04;86.18
50774;BME280;36745;48.544;8.918;2022-12-18T15:52:41;98417.50;;;-7.12;86.14
50774;BME280;36745;48.544;8.918;2022-12-18T15:56:02;98423.44;;;-7.15;86.20
50774;BME280;36745;48.544;8.918;2022-12-18T15:59:40;98432.94;;;-7.23;86.37
50774;BME280;36745;48.544;8.918;2022-12-18T16:03:00;98433.06;;;-7.28;86.02
50774;BME280;36745;48.544;8.918;2022-12-18T16:06:21;98443.66;;;-7.37;86.05
50774;BME280;36745;48.544;8.918;2022-12-18T16:09:41;98436.03;;;-7.30;86.55
50774;BME280;36745;48.544;8.918;2022-12-18T16:13:01;98435.63;;;-7.23;87.00
50774;BME280;36745;48.544;8.918;2022-12-18T16:16:21;98438.63;;;-7.25;87.15
50774;BME280;36745;48.544;8.918;2022-12-18T16:19:44;98439.13;;;-7.09;87.36
50774;BME280;36745;48.544;8.918;2022-12-18T16:23:04;98433.66;;;-7.17;87.22
50774;BME280;36745;48.544;8.918;2022-12-18T16:26:24;98433.06;;;-7.14;87.00
50774;BME280;36745;48.544;8.918;2022-12-18T16:29:44;98427.59;;;-7.09;86.94
50774;BME280;36745;48.544;8.918;2022-12-18T16:33:03;98429.78;;;-7.11;86.92
50774;BME280;36745;48.544;8.918;2022-12-18T16:36:23;98418.38;;;-7.03;87.19
50774;BME280;36745;48.544;8.918;2022-12-18T16:39:43;98426.31;;;-6.98;87.56
50774;BME280;36745;48.544;8.918;2022-12-18T16:43:03;98437.03;;;-6.98;87.65
50774;BME280;36745;48.544;8.918;2022-12-18T16:46:23;98435.13;;;-6.84;87.54
50774;BME280;36745;48.544;8.918;2022-12-18T16:49:43;98430.09;;;-6.86;87.03
50774;BME280;36745;48.544;8.918;2022-12-18T16:53:07;98425.50;;;-6.85;87.36
50774;BME280;36745;48.544;8.918;2022-12-18T16:56:27;98415.97;;;-6.78;87.51
50774;BME280;36745;48.544;8.918;2022-12-18T16:59:49;98411.41;;;-6.77;87.31
50774;BME280;36745;48.544;8.918;2022-12-18T17:03:09;98411.41;;;-6.77;87.20
50774;BME280;36745;48.544;8.918;2022-12-18T17:06:32;98416.66;;;-6.72;87.45
50774;BME280;36745;48.544;8.918;2022-12-18T17:09:52;98407.22;;;-6.83;87.45
50774;BME280;36745;48.544;8.918;2022-12-18T17:13:12;98404.63;;;-6.74;88.22
50774;BME280;36745;48.544;8.918;2022-12-18T17:16:32;98410.66;;;-6.69;88.21
50774;BME280;36745;48.544;8.918;2022-12-18T17:19:52;98401.41;;;-6.63;88.50
50774;BME280;36745;48.544;8.918;2022-12-18T17:23:11;98396.84;;;-6.62;88.58
50774;BME280;36745;48.544;8.918;2022-12-18T17:26:31;98384.13;;;-6.57;88.74
50774;BME280;36745;48.544;8.918;2022-12-18T17:29:51;98397.41;;;-6.52;89.16
50774;BME280;36745;48.544;8.918;2022-12-18T17:33:11;98390.16;;;-6.51;88.92
50774;BME280;36745;48.544;8.918;2022-12-18T17:36:31;98395.13;;;-6.45;89.02
50774;BME280;36745;48.544;8.918;2022-12-18T17:39:51;98392.03;;;-6.38;89.11
50774;BME280;36745;48.544;8.918;2022-12-18T17:43:11;98387.00;;;-6.31;89.41
50774;BME280;36745;48.544;8.918;2022-12-18T17:46:32;98408.06;;;-6.24;89.83
50774;BME280;36745;48.544;8.918;2022-12-18T17:49:52;98398.91;;;-6.23;89.00
50774;BME280;36745;48.544;8.918;2022-12-18T17:53:12;98407.25;;;-6.25;89.53
50774;BME280;36745;48.544;8.918;2022-12-18T17:56:31;98406.47;;;-6.25;89.43
50774;BME280;36745;48.544;8.918;2022-12-18T17:59:51;98402.34;;;-6.31;89.47
50774;BME280;36745;48.544;8.918;2022-12-18T18:03:11;98402.09;;;-6.21;90.29
50774;BME280;36745;48.544;8.918;2022-12-18T18:06:31;98397.69;;;-6.17;90.46
50774;BME280;36745;48.544;8.918;2022-12-18T18:09:51;98391.59;;;-6.09;90.04
50774;BME280;36745;48.544;8.918;2022-12-18T18:13:18;98391.59;;;-6.09;90.45
50774;BME280;36745;48.544;8.918;2022-12-18T18:16:57;98382.06;;;-5.93;90.33
50774;BME280;36745;48.544;8.918;2022-12-18T18:20:17;98381.81;;;-5.83;90.31
50774;BME280;36745;48.544;8.918;2022-12-18T18:23:37;98381.34;;;-5.76;90.66
50774;BME280;36745;48.544;8.918;2022-12-18T18:26:56;98391.91;;;-5.80;90.80
50774;BME280;36745;48.544;8.918;2022-12-18T18:30:18;98388.59;;;-5.77;90.51
50774;BME280;36745;48.544;8.918;2022-12-18T18:33:38;98394.97;;;-5.73;90.96
50774;BME280;36745;48.544;8.918;2022-12-18T18:36:58;98393.59;;;-5.62;90.62
50774;BME280;36745;48.544;8.918;2022-12-18T18:40:18;98387.59;;;-5.59;90.75
50774;BME280;36745;48.544;8.918;2022-12-18T18:43:40;98399.50;;;-5.51;90.78
50774;BME280;36745;48.544;8.918;2022-12-18T18:47:00;98400.91;;;-5.54;90.40
50774;BME280;36745;48.544;8.918;2022-12-18T18:50:20;98405.78;;;-5.56;91.15
50774;BME280;36745;48.544;8.918;2022-12-18T18:53:41;98405.97;;;-5.52;90.72
50774;BME280;36745;48.544;8.918;2022-12-18T18:57:01;98408.22;;;-5.45;90.88
50774;BME280;36745;48.544;8.918;2022-12-18T19:00:21;98404.25;;;-5.48;91.33
50774;BME280;36745;48.544;8.918;2022-12-18T19:03:41;98394.78;;;-5.45;91.12
50774;BME280;36745;48.544;8.918;2022-12-18T19:07:01;98392.56;;;-5.43;90.70
50774;BME280;36745;48.544;8.918;2022-12-18T19:10:21;98390.22;;;-5.36;91.22
50774;BME280;36745;48.544;8.918;2022-12-18T19:13:41;98376.66;;;-5.31;91.34
50774;BME280;36745;48.544;8.918;2022-12-18T19:17:03;98369.25;;;-5.26;91.03
50774;BME280;36745;48.544;8.918;2022-12-18T19:20:23;98367.81;;;-5.23;90.67